CheckWX is a tool to help pilots better visualize weather data.  It is not intended as a substitute for an official pre-flight weather briefing.

18:45:28 UTC

RPLB METAR
Subic Bay International Airport
Olongapo City, Philippines
Current

45 mins ago

RPLB 211800Z 04003KT 9999 FEW020 27/25 Q1009 NOSIG RMK A2980
Observed
May-21 @ 18:00 UTC
Wind
  • 040° at 3 KTS
Visibility
10,000+ meters
Flight Rules
VFR
Cloud Levels
  • Few at 2,000' AGL
Temperature
27°C / 81°F
Dewpoint
25°C / 77°F
Heat Index
31°C / 88°F
Humidity
89%
Altimeter
29.79" Hg
Pressure
1008.92 hPa
Previous

2 hours ago

RPLB 211700Z VRB02KT 9999 FEW020 27/24 Q1010 NOSIG RMK A2983
Observed
May-21 @ 17:00 UTC
Wind
  • Variable at 2 KTS
Visibility
10,000+ meters
Flight Rules
VFR
Cloud Levels
  • Few at 2,000' AGL
Temperature
27°C / 81°F
Dewpoint
24°C / 75°F
Heat Index
31°C / 87°F
Humidity
84%
Altimeter
29.82" Hg
Pressure
1009.92 hPa
Previous

3 hours ago

RPLB 211600Z 06004KT 9999 FEW020 27/25 Q1010 NOSIG RMK A2983
Observed
May-21 @ 16:00 UTC
Wind
  • 060° at 4 KTS
Visibility
10,000+ meters
Flight Rules
VFR
Cloud Levels
  • Few at 2,000' AGL
Temperature
27°C / 81°F
Dewpoint
25°C / 77°F
Heat Index
31°C / 88°F
Humidity
89%
Altimeter
29.82" Hg
Pressure
1009.92 hPa